sensor_id;sensor_type;location;lat;lon;timestamp;P1;P2;P0
73517;PMS5003;61766;60.318;25.044;2024-03-08T00:02:22;18;18;
73517;PMS5003;61766;60.318;25.044;2024-03-08T00:04:48;16;16;
73517;PMS5003;61766;60.318;25.044;2024-03-08T00:07:13;18;17;
73517;PMS5003;61766;60.318;25.044;2024-03-08T00:09:38;16;13;
73517;PMS5003;61766;60.318;25.044;2024-03-08T00:12:04;16;16;
73517;PMS5003;61766;60.318;25.044;2024-03-08T00:14:29;17;17;
73517;PMS5003;61766;60.318;25.044;2024-03-08T00:16:54;18;17;
73517;PMS5003;61766;60.318;25.044;2024-03-08T00:19:19;13;13;
73517;PMS5003;61766;60.318;25.044;2024-03-08T00:21:44;18;18;
73517;PMS5003;61766;60.318;25.044;2024-03-08T00:24:10;16;16;
73517;PMS5003;61766;60.318;25.044;2024-03-08T00:26:35;15;14;
73517;PMS5003;61766;60.318;25.044;2024-03-08T00:29:00;13;13;
73517;PMS5003;61766;60.318;25.044;2024-03-08T00:31:26;14;13;
73517;PMS5003;61766;60.318;25.044;2024-03-08T00:33:51;17;13;
73517;PMS5003;61766;60.318;25.044;2024-03-08T00:36:16;13;12;
73517;PMS5003;61766;60.318;25.044;2024-03-08T00:38:42;17;17;
73517;PMS5003;61766;60.318;25.044;2024-03-08T00:41:08;16;14;
73517;PMS5003;61766;60.318;25.044;2024-03-08T00:43:33;16;14;
73517;PMS5003;61766;60.318;25.044;2024-03-08T00:45:58;12;12;
73517;PMS5003;61766;60.318;25.044;2024-03-08T00:48:24;14;13;
73517;PMS5003;61766;60.318;25.044;2024-03-08T00:50:49;11;11;
73517;PMS5003;61766;60.318;25.044;2024-03-08T00:53:14;12;12;
73517;PMS5003;61766;60.318;25.044;2024-03-08T00:55:40;14;13;
73517;PMS5003;61766;60.318;25.044;2024-03-08T00:58:05;20;19;
73517;PMS5003;61766;60.318;25.044;2024-03-08T01:00:31;16;12;
73517;PMS5003;61766;60.318;25.044;2024-03-08T01:02:57;17;17;
73517;PMS5003;61766;60.318;25.044;2024-03-08T01:05:22;11;10;
73517;PMS5003;61766;60.318;25.044;2024-03-08T01:07:47;16;16;
73517;PMS5003;61766;60.318;25.044;2024-03-08T01:10:12;14;12;
73517;PMS5003;61766;60.318;25.044;2024-03-08T01:12:38;16;13;
73517;PMS5003;61766;60.318;25.044;2024-03-08T01:15:04;13;13;
73517;PMS5003;61766;60.318;25.044;2024-03-08T01:17:29;13;13;
73517;PMS5003;61766;60.318;25.044;2024-03-08T01:19:54;16;16;
73517;PMS5003;61766;60.318;25.044;2024-03-08T01:22:20;12;11;
73517;PMS5003;61766;60.318;25.044;2024-03-08T01:24:45;11;11;
73517;PMS5003;61766;60.318;25.044;2024-03-08T01:27:11;12;11;
73517;PMS5003;61766;60.318;25.044;2024-03-08T01:29:36;10;10;
73517;PMS5003;61766;60.318;25.044;2024-03-08T01:32:01;11;10;
73517;PMS5003;61766;60.318;25.044;2024-03-08T01:34:27;12;12;
73517;PMS5003;61766;60.318;25.044;2024-03-08T01:36:52;12;10;
73517;PMS5003;61766;60.318;25.044;2024-03-08T01:39:17;12;12;
73517;PMS5003;61766;60.318;25.044;2024-03-08T01:41:43;10;10;
73517;PMS5003;61766;60.318;25.044;2024-03-08T01:44:08;13;13;
73517;PMS5003;61766;60.318;25.044;2024-03-08T01:46:33;16;14;
73517;PMS5003;61766;60.318;25.044;2024-03-08T01:48:58;13;13;
73517;PMS5003;61766;60.318;25.044;2024-03-08T01:51:24;13;13;
73517;PMS5003;61766;60.318;25.044;2024-03-08T01:53:49;17;16;
73517;PMS5003;61766;60.318;25.044;2024-03-08T01:56:15;13;12;
73517;PMS5003;61766;60.318;25.044;2024-03-08T01:58:41;14;14;
73517;PMS5003;61766;60.318;25.044;2024-03-08T02:01:06;13;12;
73517;PMS5003;61766;60.318;25.044;2024-03-08T02:03:31;16;16;
73517;PMS5003;61766;60.318;25.044;2024-03-08T02:05:56;16;16;
73517;PMS5003;61766;60.318;25.044;2024-03-08T02:08:22;12;12;
73517;PMS5003;61766;60.318;25.044;2024-03-08T02:10:47;13;12;
73517;PMS5003;61766;60.318;25.044;2024-03-08T02:13:13;13;13;
73517;PMS5003;61766;60.318;25.044;2024-03-08T02:18:04;14;13;
73517;PMS5003;61766;60.318;25.044;2024-03-08T02:20:29;17;17;
73517;PMS5003;61766;60.318;25.044;2024-03-08T02:22:55;13;13;
73517;PMS5003;61766;60.318;25.044;2024-03-08T02:25:20;12;11;
73517;PMS5003;61766;60.318;25.044;2024-03-08T02:27:45;12;12;
73517;PMS5003;61766;60.318;25.044;2024-03-08T02:30:11;12;11;
73517;PMS5003;61766;60.318;25.044;2024-03-08T02:32:36;14;14;
73517;PMS5003;61766;60.318;25.044;2024-03-08T02:35:01;13;12;
73517;PMS5003;61766;60.318;25.044;2024-03-08T02:37:26;17;15;
73517;PMS5003;61766;60.318;25.044;2024-03-08T02:39:51;13;11;
73517;PMS5003;61766;60.318;25.044;2024-03-08T02:42:17;12;12;
73517;PMS5003;61766;60.318;25.044;2024-03-08T02:44:42;17;17;
73517;PMS5003;61766;60.318;25.044;2024-03-08T02:47:07;14;13;
73517;PMS5003;61766;60.318;25.044;2024-03-08T02:49:33;10;10;
73517;PMS5003;61766;60.318;25.044;2024-03-08T02:51:58;13;12;
73517;PMS5003;61766;60.318;25.044;2024-03-08T02:54:23;11;10;
73517;PMS5003;61766;60.318;25.044;2024-03-08T02:56:49;17;15;
73517;PMS5003;61766;60.318;25.044;2024-03-08T02:59:15;12;11;
73517;PMS5003;61766;60.318;25.044;2024-03-08T03:01:40;19;17;
73517;PMS5003;61766;60.318;25.044;2024-03-08T03:04:06;14;13;
73517;PMS5003;61766;60.318;25.044;2024-03-08T03:06:31;13;12;
73517;PMS5003;61766;60.318;25.044;2024-03-08T03:08:56;18;15;
73517;PMS5003;61766;60.318;25.044;2024-03-08T03:11:21;18;16;
73517;PMS5003;61766;60.318;25.044;2024-03-08T03:13:47;15;15;
73517;PMS5003;61766;60.318;25.044;2024-03-08T03:16:16;20;20;
73517;PMS5003;61766;60.318;25.044;2024-03-08T03:18:38;25;22;
73517;PMS5003;61766;60.318;25.044;2024-03-08T03:21:04;12;12;
73517;PMS5003;61766;60.318;25.044;2024-03-08T03:23:29;14;13;
73517;PMS5003;61766;60.318;25.044;2024-03-08T03:25:54;19;17;
73517;PMS5003;61766;60.318;25.044;2024-03-08T03:28:20;19;15;
73517;PMS5003;61766;60.318;25.044;2024-03-08T03:30:45;17;14;
73517;PMS5003;61766;60.318;25.044;2024-03-08T03:33:10;12;10;
73517;PMS5003;61766;60.318;25.044;2024-03-08T03:35:36;19;18;
73517;PMS5003;61766;60.318;25.044;2024-03-08T03:38:01;17;14;
73517;PMS5003;61766;60.318;25.044;2024-03-08T03:40:26;12;12;
73517;PMS5003;61766;60.318;25.044;2024-03-08T03:42:52;18;18;
73517;PMS5003;61766;60.318;25.044;2024-03-08T03:45:17;12;11;
73517;PMS5003;61766;60.318;25.044;2024-03-08T03:47:42;11;11;
73517;PMS5003;61766;60.318;25.044;2024-03-08T03:50:08;13;12;
73517;PMS5003;61766;60.318;25.044;2024-03-08T03:52:33;12;10;
73517;PMS5003;61766;60.318;25.044;2024-03-08T03:54:59;13;12;
73517;PMS5003;61766;60.318;25.044;2024-03-08T03:57:24;12;11;
73517;PMS5003;61766;60.318;25.044;2024-03-08T03:59:49;10;10;
73517;PMS5003;61766;60.318;25.044;2024-03-08T04:02:15;11;11;
73517;PMS5003;61766;60.318;25.044;2024-03-08T04:04:40;11;11;
73517;PMS5003;61766;60.318;25.044;2024-03-08T04:07:06;11;11;
73517;PMS5003;61766;60.318;25.044;2024-03-08T04:09:31;6;5;
73517;PMS5003;61766;60.318;25.044;2024-03-08T04:11:56;12;10;
73517;PMS5003;61766;60.318;25.044;2024-03-08T04:14:22;12;10;
73517;PMS5003;61766;60.318;25.044;2024-03-08T04:16:47;13;12;
73517;PMS5003;61766;60.318;25.044;2024-03-08T04:19:13;12;12;
73517;PMS5003;61766;60.318;25.044;2024-03-08T04:21:39;12;12;
73517;PMS5003;61766;60.318;25.044;2024-03-08T04:24:04;12;11;
73517;PMS5003;61766;60.318;25.044;2024-03-08T04:26:29;11;10;
73517;PMS5003;61766;60.318;25.044;2024-03-08T04:28:55;10;9;
73517;PMS5003;61766;60.318;25.044;2024-03-08T04:31:20;12;10;
73517;PMS5003;61766;60.318;25.044;2024-03-08T04:33:45;9;9;
73517;PMS5003;61766;60.318;25.044;2024-03-08T04:36:11;12;11;
73517;PMS5003;61766;60.318;25.044;2024-03-08T04:38:36;6;6;
73517;PMS5003;61766;60.318;25.044;2024-03-08T04:41:02;9;9;
73517;PMS5003;61766;60.318;25.044;2024-03-08T04:43:27;8;8;
73517;PMS5003;61766;60.318;25.044;2024-03-08T04:45:52;9;9;
73517;PMS5003;61766;60.318;25.044;2024-03-08T04:48:18;6;6;
73517;PMS5003;61766;60.318;25.044;2024-03-08T04:50:43;10;8;
73517;PMS5003;61766;60.318;25.044;2024-03-08T04:53:08;8;8;
73517;PMS5003;61766;60.318;25.044;2024-03-08T04:55:34;10;9;
73517;PMS5003;61766;60.318;25.044;2024-03-08T04:57:59;9;9;
73517;PMS5003;61766;60.318;25.044;2024-03-08T05:00:24;10;10;
73517;PMS5003;61766;60.318;25.044;2024-03-08T05:02:49;14;13;
73517;PMS5003;61766;60.318;25.044;2024-03-08T05:05:15;10;10;
73517;PMS5003;61766;60.318;25.044;2024-03-08T05:07:41;9;9;
73517;PMS5003;61766;60.318;25.044;2024-03-08T05:10:07;11;11;
73517;PMS5003;61766;60.318;25.044;2024-03-08T05:12:33;11;10;
73517;PMS5003;61766;60.318;25.044;2024-03-08T05:14:59;10;9;
73517;PMS5003;61766;60.318;25.044;2024-03-08T05:17:24;11;9;
73517;PMS5003;61766;60.318;25.044;2024-03-08T05:19:49;11;11;
73517;PMS5003;61766;60.318;25.044;2024-03-08T05:22:15;14;12;
73517;PMS5003;61766;60.318;25.044;2024-03-08T05:24:41;8;8;
73517;PMS5003;61766;60.318;25.044;2024-03-08T05:27:07;12;10;
73517;PMS5003;61766;60.318;25.044;2024-03-08T05:29:32;12;10;
73517;PMS5003;61766;60.318;25.044;2024-03-08T05:31:58;10;9;
73517;PMS5003;61766;60.318;25.044;2024-03-08T05:34:23;13;12;
73517;PMS5003;61766;60.318;25.044;2024-03-08T05:36:49;10;10;
73517;PMS5003;61766;60.318;25.044;2024-03-08T05:39:14;12;10;
73517;PMS5003;61766;60.318;25.044;2024-03-08T05:41:40;18;14;
73517;PMS5003;61766;60.318;25.044;2024-03-08T05:44:05;12;10;
73517;PMS5003;61766;60.318;25.044;2024-03-08T05:46:30;17;16;
73517;PMS5003;61766;60.318;25.044;2024-03-08T05:48:56;14;14;
73517;PMS5003;61766;60.318;25.044;2024-03-08T05:51:23;12;12;
73517;PMS5003;61766;60.318;25.044;2024-03-08T05:53:47;14;13;
73517;PMS5003;61766;60.318;25.044;2024-03-08T05:56:13;11;11;
73517;PMS5003;61766;60.318;25.044;2024-03-08T05:58:38;13;13;
73517;PMS5003;61766;60.318;25.044;2024-03-08T06:01:04;10;9;
73517;PMS5003;61766;60.318;25.044;2024-03-08T06:03:29;12;11;
73517;PMS5003;61766;60.318;25.044;2024-03-08T06:05:54;11;11;
73517;PMS5003;61766;60.318;25.044;2024-03-08T06:08:20;13;11;
73517;PMS5003;61766;60.318;25.044;2024-03-08T06:10:45;8;8;
73517;PMS5003;61766;60.318;25.044;2024-03-08T06:13:10;10;9;
73517;PMS5003;61766;60.318;25.044;2024-03-08T06:15:35;13;12;
73517;PMS5003;61766;60.318;25.044;2024-03-08T06:18:01;11;10;
73517;PMS5003;61766;60.318;25.044;2024-03-08T06:20:26;10;9;
73517;PMS5003;61766;60.318;25.044;2024-03-08T06:22:52;13;11;
73517;PMS5003;61766;60.318;25.044;2024-03-08T06:25:17;18;17;
73517;PMS5003;61766;60.318;25.044;2024-03-08T06:27:43;11;8;
73517;PMS5003;61766;60.318;25.044;2024-03-08T06:30:09;10;10;
73517;PMS5003;61766;60.318;25.044;2024-03-08T06:32:34;11;10;
73517;PMS5003;61766;60.318;25.044;2024-03-08T06:34:59;10;9;
73517;PMS5003;61766;60.318;25.044;2024-03-08T06:37:25;10;10;
73517;PMS5003;61766;60.318;25.044;2024-03-08T06:39:50;13;11;
73517;PMS5003;61766;60.318;25.044;2024-03-08T06:42:16;10;9;
73517;PMS5003;61766;60.318;25.044;2024-03-08T06:44:41;8;8;
73517;PMS5003;61766;60.318;25.044;2024-03-08T06:47:06;10;10;
73517;PMS5003;61766;60.318;25.044;2024-03-08T06:49:32;8;8;
73517;PMS5003;61766;60.318;25.044;2024-03-08T06:51:57;10;10;
73517;PMS5003;61766;60.318;25.044;2024-03-08T06:54:23;11;11;
73517;PMS5003;61766;60.318;25.044;2024-03-08T06:56:48;10;9;
73517;PMS5003;61766;60.318;25.044;2024-03-08T06:59:14;12;11;
73517;PMS5003;61766;60.318;25.044;2024-03-08T07:01:39;13;13;
73517;PMS5003;61766;60.318;25.044;2024-03-08T07:04:05;12;12;
73517;PMS5003;61766;60.318;25.044;2024-03-08T07:06:30;13;12;
73517;PMS5003;61766;60.318;25.044;2024-03-08T07:08:55;15;14;
73517;PMS5003;61766;60.318;25.044;2024-03-08T07:11:21;22;22;
73517;PMS5003;61766;60.318;25.044;2024-03-08T07:13:47;12;12;
73517;PMS5003;61766;60.318;25.044;2024-03-08T07:16:13;14;14;
73517;PMS5003;61766;60.318;25.044;2024-03-08T07:18:38;13;12;
73517;PMS5003;61766;60.318;25.044;2024-03-08T07:21:03;16;12;
73517;PMS5003;61766;60.318;25.044;2024-03-08T07:23:28;13;12;
73517;PMS5003;61766;60.318;25.044;2024-03-08T07:25:54;14;12;
73517;PMS5003;61766;60.318;25.044;2024-03-08T07:28:19;14;12;
73517;PMS5003;61766;60.318;25.044;2024-03-08T07:30:44;12;11;
73517;PMS5003;61766;60.318;25.044;2024-03-08T07:33:10;14;12;
73517;PMS5003;61766;60.318;25.044;2024-03-08T07:35:35;13;12;
73517;PMS5003;61766;60.318;25.044;2024-03-08T07:38:00;14;13;
73517;PMS5003;61766;60.318;25.044;2024-03-08T07:40:25;10;10;
73517;PMS5003;61766;60.318;25.044;2024-03-08T07:42:50;12;12;
73517;PMS5003;61766;60.318;25.044;2024-03-08T07:45:16;14;12;
73517;PMS5003;61766;60.318;25.044;2024-03-08T07:47:41;12;11;
73517;PMS5003;61766;60.318;25.044;2024-03-08T07:50:07;12;11;
73517;PMS5003;61766;60.318;25.044;2024-03-08T07:52:32;10;10;
73517;PMS5003;61766;60.318;25.044;2024-03-08T07:54:58;12;11;
73517;PMS5003;61766;60.318;25.044;2024-03-08T07:57:24;13;12;
73517;PMS5003;61766;60.318;25.044;2024-03-08T07:59:50;11;11;
73517;PMS5003;61766;60.318;25.044;2024-03-08T08:02:15;12;11;
73517;PMS5003;61766;60.318;25.044;2024-03-08T08:04:40;11;11;
73517;PMS5003;61766;60.318;25.044;2024-03-08T08:07:05;10;10;
73517;PMS5003;61766;60.318;25.044;2024-03-08T08:09:30;11;10;
73517;PMS5003;61766;60.318;25.044;2024-03-08T08:11:56;10;10;
73517;PMS5003;61766;60.318;25.044;2024-03-08T08:14:21;11;10;
73517;PMS5003;61766;60.318;25.044;2024-03-08T08:16:47;12;11;
73517;PMS5003;61766;60.318;25.044;2024-03-08T08:19:12;10;8;
73517;PMS5003;61766;60.318;25.044;2024-03-08T08:21:38;13;12;
73517;PMS5003;61766;60.318;25.044;2024-03-08T08:24:03;11;9;
73517;PMS5003;61766;60.318;25.044;2024-03-08T08:26:28;11;10;
73517;PMS5003;61766;60.318;25.044;2024-03-08T08:28:54;7;7;
73517;PMS5003;61766;60.318;25.044;2024-03-08T08:31:19;6;6;
73517;PMS5003;61766;60.318;25.044;2024-03-08T08:33:45;11;10;
73517;PMS5003;61766;60.318;25.044;2024-03-08T08:36:11;11;11;
73517;PMS5003;61766;60.318;25.044;2024-03-08T08:38:36;12;12;
73517;PMS5003;61766;60.318;25.044;2024-03-08T08:41:02;6;6;
73517;PMS5003;61766;60.318;25.044;2024-03-08T08:43:28;8;8;
73517;PMS5003;61766;60.318;25.044;2024-03-08T08:45:53;8;8;
73517;PMS5003;61766;60.318;25.044;2024-03-08T08:48:18;10;8;
73517;PMS5003;61766;60.318;25.044;2024-03-08T08:50:43;6;6;
73517;PMS5003;61766;60.318;25.044;2024-03-08T08:53:09;6;6;
73517;PMS5003;61766;60.318;25.044;2024-03-08T08:55:35;10;10;
73517;PMS5003;61766;60.318;25.044;2024-03-08T08:58:00;7;7;
73517;PMS5003;61766;60.318;25.044;2024-03-08T09:00:25;7;7;
73517;PMS5003;61766;60.318;25.044;2024-03-08T09:02:51;10;8;
73517;PMS5003;61766;60.318;25.044;2024-03-08T09:05:16;8;7;
73517;PMS5003;61766;60.318;25.044;2024-03-08T09:07:42;8;7;
73517;PMS5003;61766;60.318;25.044;2024-03-08T09:10:07;12;12;
73517;PMS5003;61766;60.318;25.044;2024-03-08T09:12:33;11;11;
73517;PMS5003;61766;60.318;25.044;2024-03-08T09:14:58;10;10;
73517;PMS5003;61766;60.318;25.044;2024-03-08T09:17:23;8;8;
73517;PMS5003;61766;60.318;25.044;2024-03-08T09:19:49;8;8;
73517;PMS5003;61766;60.318;25.044;2024-03-08T09:22:15;7;7;
73517;PMS5003;61766;60.318;25.044;2024-03-08T09:24:40;7;6;
73517;PMS5003;61766;60.318;25.044;2024-03-08T09:27:06;6;6;
73517;PMS5003;61766;60.318;25.044;2024-03-08T09:29:31;8;7;
73517;PMS5003;61766;60.318;25.044;2024-03-08T09:31:56;5;5;
73517;PMS5003;61766;60.318;25.044;2024-03-08T09:34:22;6;6;
73517;PMS5003;61766;60.318;25.044;2024-03-08T09:36:47;5;5;
73517;PMS5003;61766;60.318;25.044;2024-03-08T09:39:13;7;7;
73517;PMS5003;61766;60.318;25.044;2024-03-08T09:41:38;8;7;
73517;PMS5003;61766;60.318;25.044;2024-03-08T09:44:04;10;7;
73517;PMS5003;61766;60.318;25.044;2024-03-08T09:46:29;6;6;
73517;PMS5003;61766;60.318;25.044;2024-03-08T09:48:54;7;7;
73517;PMS5003;61766;60.318;25.044;2024-03-08T09:51:20;7;7;
73517;PMS5003;61766;60.318;25.044;2024-03-08T09:53:45;6;6;
73517;PMS5003;61766;60.318;25.044;2024-03-08T09:56:10;7;6;
73517;PMS5003;61766;60.318;25.044;2024-03-08T09:58:35;9;7;
73517;PMS5003;61766;60.318;25.044;2024-03-08T10:01:01;7;6;
73517;PMS5003;61766;60.318;25.044;2024-03-08T10:03:27;6;5;
73517;PMS5003;61766;60.318;25.044;2024-03-08T10:05:52;7;7;
73517;PMS5003;61766;60.318;25.044;2024-03-08T10:08:17;7;7;
73517;PMS5003;61766;60.318;25.044;2024-03-08T10:10:42;6;6;
73517;PMS5003;61766;60.318;25.044;2024-03-08T10:13:08;8;8;
73517;PMS5003;61766;60.318;25.044;2024-03-08T10:15:33;7;6;
73517;PMS5003;61766;60.318;25.044;2024-03-08T10:17:58;8;6;
73517;PMS5003;61766;60.318;25.044;2024-03-08T10:20:23;5;5;
73517;PMS5003;61766;60.318;25.044;2024-03-08T10:22:49;9;7;
73517;PMS5003;61766;60.318;25.044;2024-03-08T10:25:14;6;5;
73517;PMS5003;61766;60.318;25.044;2024-03-08T10:27:39;6;6;
73517;PMS5003;61766;60.318;25.044;2024-03-08T10:30:06;4;4;
73517;PMS5003;61766;60.318;25.044;2024-03-08T10:32:30;8;8;
73517;PMS5003;61766;60.318;25.044;2024-03-08T10:34:55;6;6;
73517;PMS5003;61766;60.318;25.044;2024-03-08T10:37:21;7;6;
73517;PMS5003;61766;60.318;25.044;2024-03-08T10:39:47;9;7;
73517;PMS5003;61766;60.318;25.044;2024-03-08T10:42:11;5;4;
73517;PMS5003;61766;60.318;25.044;2024-03-08T10:44:40;7;6;
73517;PMS5003;61766;60.318;25.044;2024-03-08T10:47:02;6;6;
73517;PMS5003;61766;60.318;25.044;2024-03-08T10:49:31;6;6;
73517;PMS5003;61766;60.318;25.044;2024-03-08T10:51:52;6;6;
73517;PMS5003;61766;60.318;25.044;2024-03-08T10:54:17;9;9;
73517;PMS5003;61766;60.318;25.044;2024-03-08T10:56:42;5;5;
73517;PMS5003;61766;60.318;25.044;2024-03-08T10:59:08;5;5;
73517;PMS5003;61766;60.318;25.044;2024-03-08T11:01:33;6;6;
73517;PMS5003;61766;60.318;25.044;2024-03-08T11:03:58;6;5;
73517;PMS5003;61766;60.318;25.044;2024-03-08T11:08:49;5;4;
73517;PMS5003;61766;60.318;25.044;2024-03-08T11:13:40;7;5;
73517;PMS5003;61766;60.318;25.044;2024-03-08T11:16:07;6;6;
73517;PMS5003;61766;60.318;25.044;2024-03-08T11:18:30;5;5;
73517;PMS5003;61766;60.318;25.044;2024-03-08T11:20:55;4;4;
73517;PMS5003;61766;60.318;25.044;2024-03-08T11:23:22;4;4;
73517;PMS5003;61766;60.318;25.044;2024-03-08T11:25:46;4;4;
73517;PMS5003;61766;60.318;25.044;2024-03-08T11:28:12;6;6;
73517;PMS5003;61766;60.318;25.044;2024-03-08T11:30:36;7;6;
73517;PMS5003;61766;60.318;25.044;2024-03-08T11:33:01;4;3;
73517;PMS5003;61766;60.318;25.044;2024-03-08T11:35:27;5;5;
73517;PMS5003;61766;60.318;25.044;2024-03-08T11:37:52;4;4;
73517;PMS5003;61766;60.318;25.044;2024-03-08T11:40:17;4;4;
73517;PMS5003;61766;60.318;25.044;2024-03-08T11:42:44;6;6;
73517;PMS5003;61766;60.318;25.044;2024-03-08T11:45:08;3;3;
73517;PMS5003;61766;60.318;25.044;2024-03-08T11:47:34;6;4;
73517;PMS5003;61766;60.318;25.044;2024-03-08T11:49:58;6;5;
73517;PMS5003;61766;60.318;25.044;2024-03-08T11:52:23;6;5;
73517;PMS5003;61766;60.318;25.044;2024-03-08T11:54:51;5;5;
73517;PMS5003;61766;60.318;25.044;2024-03-08T11:57:14;5;5;
73517;PMS5003;61766;60.318;25.044;2024-03-08T11:59:39;5;4;
73517;PMS5003;61766;60.318;25.044;2024-03-08T12:02:05;5;4;
73517;PMS5003;61766;60.318;25.044;2024-03-08T12:04:30;3;3;
73517;PMS5003;61766;60.318;25.044;2024-03-08T12:06:55;5;4;
73517;PMS5003;61766;60.318;25.044;2024-03-08T12:09:20;5;5;
73517;PMS5003;61766;60.318;25.044;2024-03-08T12:11:47;5;5;
73517;PMS5003;61766;60.318;25.044;2024-03-08T12:14:11;5;5;
73517;PMS5003;61766;60.318;25.044;2024-03-08T12:16:36;4;4;
73517;PMS5003;61766;60.318;25.044;2024-03-08T12:19:02;4;4;
73517;PMS5003;61766;60.318;25.044;2024-03-08T12:21:26;5;5;
73517;PMS5003;61766;60.318;25.044;2024-03-08T12:26:17;5;5;
73517;PMS5003;61766;60.318;25.044;2024-03-08T12:28:43;7;7;
73517;PMS5003;61766;60.318;25.044;2024-03-08T12:31:09;5;4;
73517;PMS5003;61766;60.318;25.044;2024-03-08T12:33:33;4;4;
73517;PMS5003;61766;60.318;25.044;2024-03-08T12:35:59;5;4;
73517;PMS5003;61766;60.318;25.044;2024-03-08T12:38:27;4;4;
73517;PMS5003;61766;60.318;25.044;2024-03-08T12:40:49;4;3;
73517;PMS5003;61766;60.318;25.044;2024-03-08T12:43:14;3;3;
73517;PMS5003;61766;60.318;25.044;2024-03-08T12:45:40;5;5;
73517;PMS5003;61766;60.318;25.044;2024-03-08T12:48:11;4;4;
73517;PMS5003;61766;60.318;25.044;2024-03-08T12:50:31;3;3;
73517;PMS5003;61766;60.318;25.044;2024-03-08T12:52:56;3;3;
73517;PMS5003;61766;60.318;25.044;2024-03-08T12:55:22;5;5;
73517;PMS5003;61766;60.318;25.044;2024-03-08T12:57:47;5;5;
73517;PMS5003;61766;60.318;25.044;2024-03-08T13:00:13;7;7;
73517;PMS5003;61766;60.318;25.044;2024-03-08T13:02:39;4;3;
73517;PMS5003;61766;60.318;25.044;2024-03-08T13:05:04;3;3;
73517;PMS5003;61766;60.318;25.044;2024-03-08T13:07:29;6;5;
73517;PMS5003;61766;60.318;25.044;2024-03-08T13:09:54;4;4;
73517;PMS5003;61766;60.318;25.044;2024-03-08T13:12:19;6;5;
73517;PMS5003;61766;60.318;25.044;2024-03-08T13:14:45;4;4;
73517;PMS5003;61766;60.318;25.044;2024-03-08T13:17:10;6;6;
73517;PMS5003;61766;60.318;25.044;2024-03-08T13:19:35;5;5;
73517;PMS5003;61766;60.318;25.044;2024-03-08T13:22:00;6;6;
73517;PMS5003;61766;60.318;25.044;2024-03-08T13:24:26;5;5;
73517;PMS5003;61766;60.318;25.044;2024-03-08T13:26:51;7;5;
73517;PMS5003;61766;60.318;25.044;2024-03-08T13:29:16;4;4;
73517;PMS5003;61766;60.318;25.044;2024-03-08T13:31:41;6;6;
73517;PMS5003;61766;60.318;25.044;2024-03-08T13:34:07;8;8;
73517;PMS5003;61766;60.318;25.044;2024-03-08T13:36:32;7;7;
73517;PMS5003;61766;60.318;25.044;2024-03-08T13:38:57;12;11;
73517;PMS5003;61766;60.318;25.044;2024-03-08T13:41:23;11;11;
73517;PMS5003;61766;60.318;25.044;2024-03-08T13:43:48;12;10;
73517;PMS5003;61766;60.318;25.044;2024-03-08T13:46:14;8;8;
73517;PMS5003;61766;60.318;25.044;2024-03-08T13:48:39;6;6;
73517;PMS5003;61766;60.318;25.044;2024-03-08T13:51:04;6;6;
73517;PMS5003;61766;60.318;25.044;2024-03-08T13:53:29;6;5;
73517;PMS5003;61766;60.318;25.044;2024-03-08T13:55:55;7;6;
73517;PMS5003;61766;60.318;25.044;2024-03-08T13:58:20;8;7;
73517;PMS5003;61766;60.318;25.044;2024-03-08T14:00:46;4;4;
73517;PMS5003;61766;60.318;25.044;2024-03-08T14:03:11;5;5;
73517;PMS5003;61766;60.318;25.044;2024-03-08T14:05:38;7;4;
73517;PMS5003;61766;60.318;25.044;2024-03-08T14:08:02;4;4;
73517;PMS5003;61766;60.318;25.044;2024-03-08T14:10:27;5;5;
73517;PMS5003;61766;60.318;25.044;2024-03-08T14:12:52;4;4;
73517;PMS5003;61766;60.318;25.044;2024-03-08T14:15:17;6;5;
73517;PMS5003;61766;60.318;25.044;2024-03-08T14:17:43;7;7;
73517;PMS5003;61766;60.318;25.044;2024-03-08T14:20:08;6;5;
73517;PMS5003;61766;60.318;25.044;2024-03-08T14:22:33;3;3;
73517;PMS5003;61766;60.318;25.044;2024-03-08T14:24:58;6;6;
73517;PMS5003;61766;60.318;25.044;2024-03-08T14:27:24;8;6;
73517;PMS5003;61766;60.318;25.044;2024-03-08T14:29:49;4;4;
73517;PMS5003;61766;60.318;25.044;2024-03-08T14:32:14;4;4;
73517;PMS5003;61766;60.318;25.044;2024-03-08T14:34:40;5;5;
73517;PMS5003;61766;60.318;25.044;2024-03-08T14:37:05;5;5;
73517;PMS5003;61766;60.318;25.044;2024-03-08T14:39:31;6;5;
73517;PMS5003;61766;60.318;25.044;2024-03-08T14:41:56;7;6;
73517;PMS5003;61766;60.318;25.044;2024-03-08T14:44:21;7;6;
73517;PMS5003;61766;60.318;25.044;2024-03-08T14:46:47;25;24;
73517;PMS5003;61766;60.318;25.044;2024-03-08T14:49:12;23;23;
73517;PMS5003;61766;60.318;25.044;2024-03-08T14:51:37;9;9;
73517;PMS5003;61766;60.318;25.044;2024-03-08T14:54:03;7;7;
73517;PMS5003;61766;60.318;25.044;2024-03-08T14:56:28;6;5;
73517;PMS5003;61766;60.318;25.044;2024-03-08T14:58:53;7;7;
73517;PMS5003;61766;60.318;25.044;2024-03-08T15:01:19;13;12;
73517;PMS5003;61766;60.318;25.044;2024-03-08T15:03:44;7;7;
73517;PMS5003;61766;60.318;25.044;2024-03-08T15:06:09;6;5;
73517;PMS5003;61766;60.318;25.044;2024-03-08T15:08:34;5;5;
73517;PMS5003;61766;60.318;25.044;2024-03-08T15:11:01;5;5;
73517;PMS5003;61766;60.318;25.044;2024-03-08T15:13:25;5;5;
73517;PMS5003;61766;60.318;25.044;2024-03-08T15:15:50;7;7;
73517;PMS5003;61766;60.318;25.044;2024-03-08T15:18:16;8;8;
73517;PMS5003;61766;60.318;25.044;2024-03-08T15:20:41;5;5;
73517;PMS5003;61766;60.318;25.044;2024-03-08T15:23:06;9;9;
73517;PMS5003;61766;60.318;25.044;2024-03-08T15:25:31;6;5;
73517;PMS5003;61766;60.318;25.044;2024-03-08T15:27:57;8;8;
73517;PMS5003;61766;60.318;25.044;2024-03-08T15:30:22;6;5;
73517;PMS5003;61766;60.318;25.044;2024-03-08T15:32:47;9;9;
73517;PMS5003;61766;60.318;25.044;2024-03-08T15:35:13;8;7;
73517;PMS5003;61766;60.318;25.044;2024-03-08T15:37:38;11;11;
73517;PMS5003;61766;60.318;25.044;2024-03-08T15:40:04;9;7;
73517;PMS5003;61766;60.318;25.044;2024-03-08T15:42:29;6;6;
73517;PMS5003;61766;60.318;25.044;2024-03-08T15:44:54;5;5;
73517;PMS5003;61766;60.318;25.044;2024-03-08T15:47:19;7;7;
73517;PMS5003;61766;60.318;25.044;2024-03-08T15:49:45;7;7;
73517;PMS5003;61766;60.318;25.044;2024-03-08T15:52:11;9;9;
73517;PMS5003;61766;60.318;25.044;2024-03-08T15:54:36;7;6;
73517;PMS5003;61766;60.318;25.044;2024-03-08T15:57:01;8;8;
73517;PMS5003;61766;60.318;25.044;2024-03-08T15:59:27;9;8;
73517;PMS5003;61766;60.318;25.044;2024-03-08T16:01:52;17;16;
73517;PMS5003;61766;60.318;25.044;2024-03-08T16:04:17;12;12;
73517;PMS5003;61766;60.318;25.044;2024-03-08T16:06:43;11;9;
73517;PMS5003;61766;60.318;25.044;2024-03-08T16:09:08;8;8;
73517;PMS5003;61766;60.318;25.044;2024-03-08T16:11:33;12;11;
73517;PMS5003;61766;60.318;25.044;2024-03-08T16:13:58;11;8;